sensor_id;sensor_type;location;lat;lon;timestamp;pressure;altitude;pressure_sealevel;temperature;humidity
4012;BME280;2020;48.682;9.024;2022-09-16T00:01:52;95931.97;;;11.44;92.98
4012;BME280;2020;48.682;9.024;2022-09-16T00:04:17;95922.19;;;11.46;92.97
4012;BME280;2020;48.682;9.024;2022-09-16T00:06:42;95915.97;;;11.47;94.06
4012;BME280;2020;48.682;9.024;2022-09-16T00:09:08;95912.75;;;11.45;94.68
4012;BME280;2020;48.682;9.024;2022-09-16T00:11:34;95916.31;;;11.44;94.87
4012;BME280;2020;48.682;9.024;2022-09-16T00:14:00;95908.78;;;11.49;95.04
4012;BME280;2020;48.682;9.024;2022-09-16T00:16:27;95905.91;;;11.44;94.60
4012;BME280;2020;48.682;9.024;2022-09-16T00:18:54;95907.59;;;11.36;94.72
4012;BME280;2020;48.682;9.024;2022-09-16T00:21:20;95908.22;;;11.38;94.68
4012;BME280;2020;48.682;9.024;2022-09-16T00:23:46;95901.03;;;11.40;95.83
4012;BME280;2020;48.682;9.024;2022-09-16T00:26:11;95901.97;;;11.48;95.67
4012;BME280;2020;48.682;9.024;2022-09-16T00:28:36;95911.13;;;11.44;95.36
4012;BME280;2020;48.682;9.024;2022-09-16T00:31:02;95906.47;;;11.54;96.53
4012;BME280;2020;48.682;9.024;2022-09-16T00:33:27;95911.16;;;11.59;95.10
4012;BME280;2020;48.682;9.024;2022-09-16T00:36:14;95914.09;;;11.55;94.73
4012;BME280;2020;48.682;9.024;2022-09-16T00:38:40;95909.09;;;11.54;95.20
4012;BME280;2020;48.682;9.024;2022-09-16T00:41:07;95909.72;;;11.56;95.63
4012;BME280;2020;48.682;9.024;2022-09-16T00:43:56;95907.91;;;11.56;95.42
4012;BME280;2020;48.682;9.024;2022-09-16T00:48:51;95911.69;;;11.54;95.45
4012;BME280;2020;48.682;9.024;2022-09-16T00:51:17;95922.91;;;11.54;95.65
4012;BME280;2020;48.682;9.024;2022-09-16T00:53:47;95920.06;;;11.64;96.26
4012;BME280;2020;48.682;9.024;2022-09-16T00:56:17;95924.66;;;11.62;95.17
4012;BME280;2020;48.682;9.024;2022-09-16T00:58:52;95922.41;;;11.59;96.02
4012;BME280;2020;48.682;9.024;2022-09-16T01:01:21;95921.06;;;11.63;96.19
4012;BME280;2020;48.682;9.024;2022-09-16T01:03:53;95927.53;;;11.67;96.19
4012;BME280;2020;48.682;9.024;2022-09-16T01:06:20;95923.94;;;11.68;97.15
4012;BME280;2020;48.682;9.024;2022-09-16T01:08:48;95920.34;;;11.69;97.02
4012;BME280;2020;48.682;9.024;2022-09-16T01:11:14;95914.78;;;11.73;95.42
4012;BME280;2020;48.682;9.024;2022-09-16T01:13:40;95915.78;;;11.72;95.61
4012;BME280;2020;48.682;9.024;2022-09-16T01:18:47;95912.19;;;11.73;95.44
4012;BME280;2020;48.682;9.024;2022-09-16T01:21:21;95912.00;;;11.74;96.25
4012;BME280;2020;48.682;9.024;2022-09-16T01:24:02;95912.97;;;11.73;96.56
4012;BME280;2020;48.682;9.024;2022-09-16T01:26:46;95913.81;;;11.74;96.32
4012;BME280;2020;48.682;9.024;2022-09-16T01:32:03;95910.50;;;11.80;96.17
4012;BME280;2020;48.682;9.024;2022-09-16T01:37:14;95911.91;;;11.67;95.17
4012;BME280;2020;48.682;9.024;2022-09-16T01:53:17;95903.81;;;11.62;95.34
4012;BME280;2020;48.682;9.024;2022-09-16T01:55:50;95921.16;;;11.70;96.50
4012;BME280;2020;48.682;9.024;2022-09-16T01:58:43;95917.47;;;11.64;96.55
4012;BME280;2020;48.682;9.024;2022-09-16T02:01:15;95923.03;;;11.61;96.48
4012;BME280;2020;48.682;9.024;2022-09-16T02:03:46;95917.47;;;11.64;97.42
4012;BME280;2020;48.682;9.024;2022-09-16T02:06:17;95915.50;;;11.66;97.02
4012;BME280;2020;48.682;9.024;2022-09-16T02:08:49;95911.91;;;11.67;96.91
4012;BME280;2020;48.682;9.024;2022-09-16T02:11:17;95916.75;;;11.70;97.27
4012;BME280;2020;48.682;9.024;2022-09-16T02:13:53;95906.69;;;11.67;96.13
4012;BME280;2020;48.682;9.024;2022-09-16T02:16:31;95904.16;;;11.59;94.92
4012;BME280;2020;48.682;9.024;2022-09-16T02:19:01;95915.84;;;11.63;96.73
4012;BME280;2020;48.682;9.024;2022-09-16T02:21:32;95909.81;;;11.63;96.51
4012;BME280;2020;48.682;9.024;2022-09-16T02:24:02;95909.38;;;11.59;96.18
4012;BME280;2020;48.682;9.024;2022-09-16T02:26:34;95911.00;;;11.60;95.69
4012;BME280;2020;48.682;9.024;2022-09-16T02:29:00;95910.41;;;11.50;95.77
4012;BME280;2020;48.682;9.024;2022-09-16T02:31:32;95912.66;;;11.53;95.41
4012;BME280;2020;48.682;9.024;2022-09-16T02:34:03;95906.19;;;11.49;95.67
4012;BME280;2020;48.682;9.024;2022-09-16T02:36:32;95901.25;;;11.54;96.63
4012;BME280;2020;48.682;9.024;2022-09-16T02:39:05;95896.06;;;11.54;96.21
4012;BME280;2020;48.682;9.024;2022-09-16T02:41:33;95897.03;;;11.53;96.40
4012;BME280;2020;48.682;9.024;2022-09-16T02:43:59;95896.06;;;11.54;96.38
4012;BME280;2020;48.682;9.024;2022-09-16T02:46:38;95897.66;;;11.55;95.55
4012;BME280;2020;48.682;9.024;2022-09-16T02:49:11;95906.81;;;11.51;96.69
4012;BME280;2020;48.682;9.024;2022-09-16T02:54:33;95898.72;;;11.46;97.30
4012;BME280;2020;48.682;9.024;2022-09-16T02:57:00;95896.13;;;11.46;96.55
4012;BME280;2020;48.682;9.024;2022-09-16T02:59:26;95901.03;;;11.40;95.61
4012;BME280;2020;48.682;9.024;2022-09-16T03:01:51;95904.72;;;11.46;96.32
4012;BME280;2020;48.682;9.024;2022-09-16T03:04:19;95901.31;;;11.46;96.89
4012;BME280;2020;48.682;9.024;2022-09-16T03:06:44;95904.56;;;11.48;96.67
4012;BME280;2020;48.682;9.024;2022-09-16T03:09:14;95902.66;;;11.41;96.68
4012;BME280;2020;48.682;9.024;2022-09-16T03:22:29;95901.97;;;11.48;96.32
4012;BME280;2020;48.682;9.024;2022-09-16T03:25:17;95887.13;;;11.48;96.80
4012;BME280;2020;48.682;9.024;2022-09-16T03:27:54;95897.03;;;11.53;96.27
4012;BME280;2020;48.682;9.024;2022-09-16T03:30:22;95889.91;;;11.47;96.37
4012;BME280;2020;48.682;9.024;2022-09-16T03:32:52;95884.06;;;11.45;97.35
4012;BME280;2020;48.682;9.024;2022-09-16T03:35:39;95889.09;;;11.46;97.91
4012;BME280;2020;48.682;9.024;2022-09-16T03:38:07;95885.97;;;11.51;97.75
4012;BME280;2020;48.682;9.024;2022-09-16T03:40:34;95881.75;;;11.50;96.87
4012;BME280;2020;48.682;9.024;2022-09-16T03:42:59;95870.34;;;11.51;97.93
4012;BME280;2020;48.682;9.024;2022-09-16T03:45:25;95877.53;;;11.49;97.76
4012;BME280;2020;48.682;9.024;2022-09-16T03:47:51;95870.34;;;11.51;97.23
4012;BME280;2020;48.682;9.024;2022-09-16T03:50:18;95870.69;;;11.48;97.83
4012;BME280;2020;48.682;9.024;2022-09-16T03:52:44;95876.88;;;11.47;97.99
4012;BME280;2020;48.682;9.024;2022-09-16T03:55:09;95869.06;;;11.47;98.38
4012;BME280;2020;48.682;9.024;2022-09-16T03:57:35;95872.94;;;11.51;98.51
4012;BME280;2020;48.682;9.024;2022-09-16T04:00:02;95865.47;;;11.48;96.87
4012;BME280;2020;48.682;9.024;2022-09-16T04:02:28;95872.31;;;11.49;97.05
4012;BME280;2020;48.682;9.024;2022-09-16T04:04:53;95869.34;;;11.52;97.24
4012;BME280;2020;48.682;9.024;2022-09-16T04:07:18;95878.09;;;11.59;96.37
4012;BME280;2020;48.682;9.024;2022-09-16T04:09:44;95877.75;;;11.62;95.69
4012;BME280;2020;48.682;9.024;2022-09-16T04:12:09;95874.16;;;11.63;96.03
4012;BME280;2020;48.682;9.024;2022-09-16T04:14:35;95871.69;;;11.62;96.67
4012;BME280;2020;48.682;9.024;2022-09-16T04:17:00;95868.00;;;11.56;96.04
4012;BME280;2020;48.682;9.024;2022-09-16T04:19:26;95866.03;;;11.58;95.14
4012;BME280;2020;48.682;9.024;2022-09-16T04:21:51;95867.19;;;11.55;94.83
4012;BME280;2020;48.682;9.024;2022-09-16T04:24:17;95863.59;;;11.56;94.46
4012;BME280;2020;48.682;9.024;2022-09-16T04:26:42;95863.16;;;11.53;95.23
4012;BME280;2020;48.682;9.024;2022-09-16T04:29:08;95861.53;;;11.52;96.23
4012;BME280;2020;48.682;9.024;2022-09-16T04:31:34;95854.69;;;11.51;96.04
4012;BME280;2020;48.682;9.024;2022-09-16T04:34:00;95844.91;;;11.53;95.90
4012;BME280;2020;48.682;9.024;2022-09-16T04:36:25;95849.50;;;11.51;95.15
4012;BME280;2020;48.682;9.024;2022-09-16T04:38:51;95845.91;;;11.52;95.54
4012;BME280;2020;48.682;9.024;2022-09-16T04:41:18;95852.09;;;11.51;95.75
4012;BME280;2020;48.682;9.024;2022-09-16T04:43:44;95847.25;;;11.48;94.75
4012;BME280;2020;48.682;9.024;2022-09-16T04:46:10;95846.25;;;11.49;95.46
4012;BME280;2020;48.682;9.024;2022-09-16T04:48:35;95851.47;;;11.49;96.54
4012;BME280;2020;48.682;9.024;2022-09-16T04:51:09;95849.50;;;11.51;96.07
4012;BME280;2020;48.682;9.024;2022-09-16T04:53:39;95849.50;;;11.51;96.68
4012;BME280;2020;48.682;9.024;2022-09-16T04:56:29;95845.44;;;11.48;96.50
4012;BME280;2020;48.682;9.024;2022-09-16T04:58:58;95848.22;;;11.47;97.64
4012;BME280;2020;48.682;9.024;2022-09-16T05:01:32;95848.59;;;11.44;96.26
4012;BME280;2020;48.682;9.024;2022-09-16T05:04:01;95846.47;;;11.39;97.06
4012;BME280;2020;48.682;9.024;2022-09-16T05:06:34;95855.75;;;11.41;96.61
4012;BME280;2020;48.682;9.024;2022-09-16T05:09:00;95855.75;;;11.41;95.66
4012;BME280;2020;48.682;9.024;2022-09-16T05:11:28;95864.22;;;11.44;96.64
4012;BME280;2020;48.682;9.024;2022-09-16T05:13:57;95875.91;;;11.48;96.00
4012;BME280;2020;48.682;9.024;2022-09-16T05:16:22;95884.72;;;11.47;95.53
4012;BME280;2020;48.682;9.024;2022-09-16T05:18:50;95884.34;;;11.50;95.19
4012;BME280;2020;48.682;9.024;2022-09-16T05:21:19;95877.88;;;11.46;96.14
4012;BME280;2020;48.682;9.024;2022-09-16T05:23:45;95870.81;;;11.31;94.40
4012;BME280;2020;48.682;9.024;2022-09-16T05:26:16;95870.81;;;11.31;96.47
4012;BME280;2020;48.682;9.024;2022-09-16T05:28:42;95863.44;;;11.35;96.15
4012;BME280;2020;48.682;9.024;2022-09-16T05:31:08;95860.56;;;11.30;95.10
4012;BME280;2020;48.682;9.024;2022-09-16T05:33:33;95858.78;;;11.30;96.60
4012;BME280;2020;48.682;9.024;2022-09-16T05:36:10;95856.81;;;11.32;97.30
4012;BME280;2020;48.682;9.024;2022-09-16T05:38:36;95860.06;;;11.34;95.80
4012;BME280;2020;48.682;9.024;2022-09-16T05:41:03;95858.44;;;11.33;95.17
4012;BME280;2020;48.682;9.024;2022-09-16T05:43:29;95863.28;;;11.36;94.17
4012;BME280;2020;48.682;9.024;2022-09-16T05:45:55;95862.03;;;11.32;93.01
4012;BME280;2020;48.682;9.024;2022-09-16T05:48:22;95868.50;;;11.36;94.76
4012;BME280;2020;48.682;9.024;2022-09-16T05:51:02;95870.91;;;11.38;93.63
4012;BME280;2020;48.682;9.024;2022-09-16T05:53:30;95877.13;;;11.37;93.47
4012;BME280;2020;48.682;9.024;2022-09-16T05:56:05;95880.53;;;11.37;94.16
4012;BME280;2020;48.682;9.024;2022-09-16T05:58:32;95878.56;;;11.39;94.22
4012;BME280;2020;48.682;9.024;2022-09-16T06:01:03;95873.72;;;11.36;93.84
4012;BME280;2020;48.682;9.024;2022-09-16T06:03:30;95877.66;;;11.32;94.83
4012;BME280;2020;48.682;9.024;2022-09-16T06:05:59;95882.88;;;11.32;95.24
4012;BME280;2020;48.682;9.024;2022-09-16T06:08:25;95882.50;;;11.35;95.99
4012;BME280;2020;48.682;9.024;2022-09-16T06:10:50;95888.06;;;11.32;96.23
4012;BME280;2020;48.682;9.024;2022-09-16T06:13:16;95876.41;;;11.20;94.04
4012;BME280;2020;48.682;9.024;2022-09-16T06:15:50;95882.59;;;11.19;95.88
4012;BME280;2020;48.682;9.024;2022-09-16T06:18:16;95884.50;;;11.25;95.81
4012;BME280;2020;48.682;9.024;2022-09-16T06:20:43;95878.31;;;11.26;96.06
4012;BME280;2020;48.682;9.024;2022-09-16T06:23:09;95890.03;;;11.30;93.79
4012;BME280;2020;48.682;9.024;2022-09-16T06:25:34;95892.00;;;11.28;93.77
4012;BME280;2020;48.682;9.024;2022-09-16T06:28:00;95885.69;;;11.22;93.49
4012;BME280;2020;48.682;9.024;2022-09-16T06:30:25;95884.56;;;11.17;94.12
4012;BME280;2020;48.682;9.024;2022-09-16T06:32:50;95874.50;;;11.14;95.75
4012;BME280;2020;48.682;9.024;2022-09-16T06:35:16;95877.28;;;11.12;95.78
4012;BME280;2020;48.682;9.024;2022-09-16T06:37:41;95880.88;;;11.11;96.75
4012;BME280;2020;48.682;9.024;2022-09-16T06:40:06;95879.72;;;11.14;96.86
4012;BME280;2020;48.682;9.024;2022-09-16T06:42:32;95879.75;;;11.05;96.79
4012;BME280;2020;48.682;9.024;2022-09-16T06:44:57;95882.38;;;11.05;97.63
4012;BME280;2020;48.682;9.024;2022-09-16T06:47:22;95876.38;;;11.05;97.45
4012;BME280;2020;48.682;9.024;2022-09-16T06:49:47;95878.44;;;11.09;98.68
4012;BME280;2020;48.682;9.024;2022-09-16T06:52:13;95885.16;;;11.04;97.29
4012;BME280;2020;48.682;9.024;2022-09-16T06:54:38;95887.34;;;10.92;97.98
4012;BME280;2020;48.682;9.024;2022-09-16T06:57:03;95880.66;;;10.97;99.11
4012;BME280;2020;48.682;9.024;2022-09-16T06:59:29;95884.69;;;11.00;100.00
4012;BME280;2020;48.682;9.024;2022-09-16T07:01:54;95884.34;;;11.03;100.00
4012;BME280;2020;48.682;9.024;2022-09-16T07:04:19;95890.81;;;11.07;99.40
4012;BME280;2020;48.682;9.024;2022-09-16T07:06:44;95896.03;;;11.07;98.78
4012;BME280;2020;48.682;9.024;2022-09-16T07:09:11;95895.97;;;11.16;99.50
4012;BME280;2020;48.682;9.024;2022-09-16T07:11:36;95902.84;;;11.08;98.64
4012;BME280;2020;48.682;9.024;2022-09-16T07:14:02;95891.47;;;11.09;98.35
4012;BME280;2020;48.682;9.024;2022-09-16T07:16:27;95899.16;;;11.03;98.96
4012;BME280;2020;48.682;9.024;2022-09-16T07:18:57;95906.00;;;11.04;100.00
4012;BME280;2020;48.682;9.024;2022-09-16T07:21:25;95903.19;;;11.05;98.63
4012;BME280;2020;48.682;9.024;2022-09-16T07:23:57;95896.72;;;11.01;98.51
4012;BME280;2020;48.682;9.024;2022-09-16T07:26:26;95897.75;;;10.92;99.54
4012;BME280;2020;48.682;9.024;2022-09-16T07:28:52;95894.47;;;10.98;100.00
4012;BME280;2020;48.682;9.024;2022-09-16T07:31:21;95897.41;;;10.95;100.00
4012;BME280;2020;48.682;9.024;2022-09-16T07:33:52;95888.66;;;10.88;100.00
4012;BME280;2020;48.682;9.024;2022-09-16T07:36:20;95895.97;;;10.92;100.00
4012;BME280;2020;48.682;9.024;2022-09-16T07:38:46;95907.47;;;10.98;100.00
4012;BME280;2020;48.682;9.024;2022-09-16T07:41:36;95905.84;;;10.97;99.82
4012;BME280;2020;48.682;9.024;2022-09-16T07:44:02;95908.31;;;10.99;99.84
4012;BME280;2020;48.682;9.024;2022-09-16T07:46:30;95903.53;;;11.02;99.70
4012;BME280;2020;48.682;9.024;2022-09-16T07:48:57;95905.50;;;11.00;99.08
4012;BME280;2020;48.682;9.024;2022-09-16T07:51:24;95913.97;;;11.02;99.56
4012;BME280;2020;48.682;9.024;2022-09-16T07:53:54;95915.13;;;11.00;100.00
4012;BME280;2020;48.682;9.024;2022-09-16T07:56:21;95917.91;;;10.98;100.00
4012;BME280;2020;48.682;9.024;2022-09-16T07:58:49;95914.66;;;10.96;100.00
4012;BME280;2020;48.682;9.024;2022-09-16T08:01:15;95924.72;;;10.99;100.00
4012;BME280;2020;48.682;9.024;2022-09-16T08:03:42;95921.44;;;11.05;100.00
4012;BME280;2020;48.682;9.024;2022-09-16T08:06:30;95929.25;;;11.05;100.00
4012;BME280;2020;48.682;9.024;2022-09-16T08:08:57;95922.41;;;11.04;100.00
4012;BME280;2020;48.682;9.024;2022-09-16T08:11:25;95914.22;;;11.16;100.00
4012;BME280;2020;48.682;9.024;2022-09-16T08:13:50;95920.97;;;11.25;100.00
4012;BME280;2020;48.682;9.024;2022-09-16T08:16:17;95921.97;;;11.24;99.58
4012;BME280;2020;48.682;9.024;2022-09-16T08:18:44;95922.94;;;11.31;100.00
4012;BME280;2020;48.682;9.024;2022-09-16T08:21:12;95924.09;;;11.52;100.00
4012;BME280;2020;48.682;9.024;2022-09-16T08:23:38;95927.91;;;11.64;100.00
4012;BME280;2020;48.682;9.024;2022-09-16T08:26:04;95928.81;;;11.72;99.76
4012;BME280;2020;48.682;9.024;2022-09-16T08:28:30;95928.81;;;11.72;98.79
4012;BME280;2020;48.682;9.024;2022-09-16T08:31:00;95936.44;;;11.73;100.00
4012;BME280;2020;48.682;9.024;2022-09-16T08:33:26;95948.03;;;11.70;99.85
4012;BME280;2020;48.682;9.024;2022-09-16T08:36:13;95937.63;;;11.70;99.29
4012;BME280;2020;48.682;9.024;2022-09-16T08:38:40;95940.38;;;11.69;95.05
4012;BME280;2020;48.682;9.024;2022-09-16T08:41:27;95948.75;;;11.64;95.89
4012;BME280;2020;48.682;9.024;2022-09-16T08:44:21;95949.09;;;11.61;97.99
4012;BME280;2020;48.682;9.024;2022-09-16T08:47:02;95958.06;;;11.59;97.64
4012;BME280;2020;48.682;9.024;2022-09-16T08:49:44;95961.50;;;11.59;97.35
4012;BME280;2020;48.682;9.024;2022-09-16T08:52:26;95963.47;;;11.57;99.20
4012;BME280;2020;48.682;9.024;2022-09-16T08:54:56;95965.44;;;11.55;97.49
4012;BME280;2020;48.682;9.024;2022-09-16T08:57:26;95964.44;;;11.56;98.29
4012;BME280;2020;48.682;9.024;2022-09-16T09:00:02;95966.22;;;11.55;98.30
4012;BME280;2020;48.682;9.024;2022-09-16T09:02:37;95963.81;;;11.54;99.74
4012;BME280;2020;48.682;9.024;2022-09-16T09:13:25;95957.78;;;11.53;99.46
4012;BME280;2020;48.682;9.024;2022-09-16T09:15:59;95960.03;;;11.56;97.62
4012;BME280;2020;48.682;9.024;2022-09-16T09:18:38;95964.16;;;11.51;98.44
4012;BME280;2020;48.682;9.024;2022-09-16T09:21:25;95962.13;;;11.61;99.11
4012;BME280;2020;48.682;9.024;2022-09-16T09:26:48;95972.03;;;11.66;99.39
4012;BME280;2020;48.682;9.024;2022-09-16T09:29:20;95966.00;;;11.65;97.43
4012;BME280;2020;48.682;9.024;2022-09-16T09:31:55;95956.91;;;11.61;96.32
4012;BME280;2020;48.682;9.024;2022-09-16T09:39:44;95941.22;;;11.69;95.22
4012;BME280;2020;48.682;9.024;2022-09-16T09:42:13;95942.47;;;11.74;94.49
4012;BME280;2020;48.682;9.024;2022-09-16T09:47:25;95946.06;;;11.73;94.52
4012;BME280;2020;48.682;9.024;2022-09-16T09:50:02;95946.44;;;11.69;93.92
4012;BME280;2020;48.682;9.024;2022-09-16T09:52:34;95946.06;;;11.73;93.69
4012;BME280;2020;48.682;9.024;2022-09-16T09:55:20;95952.00;;;11.66;92.64
4012;BME280;2020;48.682;9.024;2022-09-16T09:57:58;95953.97;;;11.64;92.84
4012;BME280;2020;48.682;9.024;2022-09-16T10:00:25;95948.84;;;11.71;93.29
4012;BME280;2020;48.682;9.024;2022-09-16T10:02:50;95948.63;;;11.81;93.32
4012;BME280;2020;48.682;9.024;2022-09-16T10:05:24;95955.91;;;11.85;92.85
4012;BME280;2020;48.682;9.024;2022-09-16T10:07:56;95961.59;;;11.89;93.84
4012;BME280;2020;48.682;9.024;2022-09-16T10:10:24;95967.59;;;11.90;93.72
4012;BME280;2020;48.682;9.024;2022-09-16T10:12:50;95967.59;;;11.90;91.05
4012;BME280;2020;48.682;9.024;2022-09-16T10:15:25;95964.53;;;11.86;91.20
4012;BME280;2020;48.682;9.024;2022-09-16T10:17:52;95961.59;;;11.89;92.33
4012;BME280;2020;48.682;9.024;2022-09-16T10:20:35;95954.03;;;11.94;92.19
4012;BME280;2020;48.682;9.024;2022-09-16T10:23:15;95953.38;;;12.01;91.75
4012;BME280;2020;48.682;9.024;2022-09-16T10:25:41;95940.81;;;12.19;93.19
4012;BME280;2020;48.682;9.024;2022-09-16T10:28:21;95937.19;;;12.20;90.58
4012;BME280;2020;48.682;9.024;2022-09-16T10:30:49;95947.84;;;12.19;91.49
4012;BME280;2020;48.682;9.024;2022-09-16T10:33:35;95947.63;;;12.20;89.94
4012;BME280;2020;48.682;9.024;2022-09-16T10:36:01;95944.41;;;12.18;88.51
4012;BME280;2020;48.682;9.024;2022-09-16T10:38:40;95938.09;;;12.27;90.77
4012;BME280;2020;48.682;9.024;2022-09-16T10:41:08;95944.50;;;12.40;90.28
4012;BME280;2020;48.682;9.024;2022-09-16T10:43:49;95948.72;;;12.41;88.54
4012;BME280;2020;48.682;9.024;2022-09-16T10:46:15;95947.94;;;12.40;90.19
4012;BME280;2020;48.682;9.024;2022-09-16T10:48:42;95954.78;;;12.41;93.74
4012;BME280;2020;48.682;9.024;2022-09-16T10:51:23;95951.19;;;12.42;91.44
4012;BME280;2020;48.682;9.024;2022-09-16T10:54:00;95959.88;;;12.35;90.24
4012;BME280;2020;48.682;9.024;2022-09-16T10:56:29;95955.66;;;12.34;91.33
4012;BME280;2020;48.682;9.024;2022-09-16T10:59:09;95960.53;;;12.22;86.04
4012;BME280;2020;48.682;9.024;2022-09-16T11:04:16;95963.66;;;12.17;84.99
4012;BME280;2020;48.682;9.024;2022-09-16T11:12:36;95969.56;;;12.11;87.23
4012;BME280;2020;48.682;9.024;2022-09-16T11:18:16;95972.75;;;12.21;89.36
4012;BME280;2020;48.682;9.024;2022-09-16T11:21:03;95972.75;;;12.21;86.79
4012;BME280;2020;48.682;9.024;2022-09-16T11:23:38;95972.03;;;12.12;84.07
4012;BME280;2020;48.682;9.024;2022-09-16T11:32:02;95973.63;;;12.13;82.25
4012;BME280;2020;48.682;9.024;2022-09-16T11:35:46;95974.78;;;12.11;81.54
4012;BME280;2020;48.682;9.024;2022-09-16T11:48:48;95966.91;;;12.49;79.42
4012;BME280;2020;48.682;9.024;2022-09-16T11:51:35;95970.63;;;12.55;80.35
4012;BME280;2020;48.682;9.024;2022-09-16T11:54:31;95967.56;;;12.66;76.95
4012;BME280;2020;48.682;9.024;2022-09-16T11:57:03;95962.22;;;12.90;77.46
4012;BME280;2020;48.682;9.024;2022-09-16T11:59:40;95960.78;;;13.02;72.96
4012;BME280;2020;48.682;9.024;2022-09-16T12:02:21;95959.31;;;13.14;68.92
4012;BME280;2020;48.682;9.024;2022-09-16T12:05:11;95964.41;;;13.23;70.93
4012;BME280;2020;48.682;9.024;2022-09-16T12:07:44;95946.63;;;13.33;68.02
4012;BME280;2020;48.682;9.024;2022-09-16T12:10:20;95953.28;;;13.51;70.49
4012;BME280;2020;48.682;9.024;2022-09-16T12:12:58;95951.41;;;13.44;68.95
4012;BME280;2020;48.682;9.024;2022-09-16T12:15:36;95950.41;;;13.45;69.12
4012;BME280;2020;48.682;9.024;2022-09-16T12:18:12;95941.56;;;13.47;70.23
4012;BME280;2020;48.682;9.024;2022-09-16T12:20:46;95943.91;;;13.41;70.29
4012;BME280;2020;48.682;9.024;2022-09-16T12:23:17;95943.84;;;13.35;71.71
4012;BME280;2020;48.682;9.024;2022-09-16T12:29:32;95947.81;;;13.30;72.80
4012;BME280;2020;48.682;9.024;2022-09-16T12:31:38;95947.75;;;13.24;71.77
4012;BME280;2020;48.682;9.024;2022-09-16T12:34:13;95949.47;;;13.16;71.55
4012;BME280;2020;48.682;9.024;2022-09-16T12:36:44;95953.34;;;13.21;72.70
4012;BME280;2020;48.682;9.024;2022-09-16T12:39:11;95952.81;;;13.10;72.00
4012;BME280;2020;48.682;9.024;2022-09-16T12:44:37;95946.72;;;13.03;75.04
4012;BME280;2020;48.682;9.024;2022-09-16T12:47:34;95945.47;;;12.99;74.44
4012;BME280;2020;48.682;9.024;2022-09-16T13:01:24;95929.88;;;13.42;74.90
4012;BME280;2020;48.682;9.024;2022-09-16T13:06:54;95930.13;;;13.48;69.68
4012;BME280;2020;48.682;9.024;2022-09-16T13:09:30;95919.97;;;13.59;72.16
4012;BME280;2020;48.682;9.024;2022-09-16T13:12:02;95925.53;;;14.00;71.81
4012;BME280;2020;48.682;9.024;2022-09-16T13:14:32;95925.28;;;14.58;68.76
4012;BME280;2020;48.682;9.024;2022-09-16T13:17:00;95920.56;;;15.31;70.24
4012;BME280;2020;48.682;9.024;2022-09-16T13:19:46;95908.88;;;15.81;64.87
4012;BME280;2020;48.682;9.024;2022-09-16T13:22:29;95914.16;;;16.01;63.88
4012;BME280;2020;48.682;9.024;2022-09-16T13:27:57;95915.56;;;16.17;63.31
4012;BME280;2020;48.682;9.024;2022-09-16T13:30:34;95906.88;;;16.16;59.76
4012;BME280;2020;48.682;9.024;2022-09-16T13:35:40;95909.72;;;16.01;59.63
4012;BME280;2020;48.682;9.024;2022-09-16T13:40:57;95901.66;;;15.96;57.80
4012;BME280;2020;48.682;9.024;2022-09-16T13:43:36;95912.13;;;16.16;58.70
4012;BME280;2020;48.682;9.024;2022-09-16T13:46:04;95897.78;;;16.19;59.58
4012;BME280;2020;48.682;9.024;2022-09-16T13:48:35;95906.50;;;15.99;57.56
4012;BME280;2020;48.682;9.024;2022-09-16T13:51:08;95906.69;;;16.04;58.00
4012;BME280;2020;48.682;9.024;2022-09-16T13:53:36;95902.03;;;15.79;56.54
4012;BME280;2020;48.682;9.024;2022-09-16T13:59:18;95895.81;;;16.80;54.44
4012;BME280;2020;48.682;9.024;2022-09-16T14:07:39;95896.75;;;16.33;57.08
4012;BME280;2020;48.682;9.024;2022-09-16T14:10:22;95890.28;;;16.29;57.61
4012;BME280;2020;48.682;9.024;2022-09-16T14:13:08;95888.47;;;16.23;57.08
4012;BME280;2020;48.682;9.024;2022-09-16T14:15:39;95887.88;;;16.21;58.89
4012;BME280;2020;48.682;9.024;2022-09-16T14:18:06;95893.16;;;15.54;55.77
4012;BME280;2020;48.682;9.024;2022-09-16T14:20:33;95900.00;;;15.41;62.18
4012;BME280;2020;48.682;9.024;2022-09-16T14:23:04;95889.50;;;15.41;60.02
4012;BME280;2020;48.682;9.024;2022-09-16T14:25:34;95885.44;;;15.25;62.92
4012;BME280;2020;48.682;9.024;2022-09-16T14:28:17;95887.59;;;15.08;59.30
4012;BME280;2020;48.682;9.024;2022-09-16T14:30:52;95891.63;;;15.04;58.61
4012;BME280;2020;48.682;9.024;2022-09-16T14:33:22;95881.03;;;15.46;60.51
4012;BME280;2020;48.682;9.024;2022-09-16T14:35:49;95888.31;;;15.64;57.85
4012;BME280;2020;48.682;9.024;2022-09-16T14:38:18;95887.91;;;15.81;55.88
4012;BME280;2020;48.682;9.024;2022-09-16T14:40:44;95883.47;;;15.74;57.30
4012;BME280;2020;48.682;9.024;2022-09-16T14:43:19;95888.72;;;15.88;55.00
4012;BME280;2020;48.682;9.024;2022-09-16T14:45:49;95879.41;;;16.19;57.20
4012;BME280;2020;48.682;9.024;2022-09-16T14:48:17;95882.84;;;15.86;54.75
4012;BME280;2020;48.682;9.024;2022-09-16T14:50:46;95881.66;;;16.08;56.11
4012;BME280;2020;48.682;9.024;2022-09-16T14:55:48;95878.19;;;16.15;56.57
4012;BME280;2020;48.682;9.024;2022-09-16T14:58:14;95885.06;;;15.75;55.68
4012;BME280;2020;48.682;9.024;2022-09-16T15:00:50;95885.06;;;15.62;55.51
4012;BME280;2020;48.682;9.024;2022-09-16T15:03:22;95876.19;;;16.03;56.01
4012;BME280;2020;48.682;9.024;2022-09-16T15:05:49;95883.22;;;16.30;54.56
4012;BME280;2020;48.682;9.024;2022-09-16T15:11:15;95874.16;;;16.19;53.90
4012;BME280;2020;48.682;9.024;2022-09-16T15:13:43;95874.53;;;16.29;52.71
4012;BME280;2020;48.682;9.024;2022-09-16T15:16:13;95870.94;;;16.03;53.42
4012;BME280;2020;48.682;9.024;2022-09-16T15:18:51;95870.88;;;16.30;56.36
4012;BME280;2020;48.682;9.024;2022-09-16T15:21:22;95875.41;;;15.96;54.06
4012;BME280;2020;48.682;9.024;2022-09-16T15:23:51;95868.34;;;15.49;54.67
4012;BME280;2020;48.682;9.024;2022-09-16T15:26:19;95871.75;;;15.30;56.32
4012;BME280;2020;48.682;9.024;2022-09-16T15:31:35;95874.94;;;15.12;55.91
4012;BME280;2020;48.682;9.024;2022-09-16T15:34:21;95873.75;;;15.28;54.57
4012;BME280;2020;48.682;9.024;2022-09-16T15:36:51;95868.06;;;15.17;53.28
4012;BME280;2020;48.682;9.024;2022-09-16T15:39:33;95873.56;;;15.36;56.61
4012;BME280;2020;48.682;9.024;2022-09-16T15:42:20;95878.00;;;15.29;53.79
4012;BME280;2020;48.682;9.024;2022-09-16T15:44:56;95877.53;;;15.18;54.69
4012;BME280;2020;48.682;9.024;2022-09-16T15:47:30;95882.59;;;15.20;55.26
4012;BME280;2020;48.682;9.024;2022-09-16T15:50:03;95881.84;;;15.33;53.17
4012;BME280;2020;48.682;9.024;2022-09-16T15:52:33;95872.50;;;15.24;55.37
4012;BME280;2020;48.682;9.024;2022-09-16T15:55:01;95875.78;;;15.26;56.86